Terminal Aerodrome Forecast
Issued by NWS Green Bay, WI

Home | Current Version | Previous Version | Graphics & Text | Print | Product List | Glossary Off
Versions: 1 2 3 4 5 6 7 8 9 10 11 12 13 14 15 16 17 18 19 20 21 22 23 24 25 26 27 28 29 30 31 32 33 34 35 36 37 38 39 40 41 42 43

000
FTUS43 KGRB 011100
TAFGRB
TAF
KGRB 011137Z 0112/0212 11008KT P6SM BKN120
     FM011900 16015G23KT P6SM SCT120
     FM020000 19013G20KT P6SM SCT040 BKN080 WS012/21045KT
      TEMPO 0209/0212 5SM -SHRA BR BKN020 OVC040=

USA.gov is the U.S. government's official web portal to all federal, state and local government web resources and services.